Time;durP1;ratioP1;P1;durP2;ratioP2;P2;SDS_P1;SDS_P2;PMS_P1;PMS_P2;Temp;Humidity;BMP_temperature;BMP_pressure;BME280_temperature;BME280_humidity;BME280_pressure;Samples;Min_cycle;Max_cycle;Signal;HPM_P1;HPM_P2
2022/07/20 00:00:08;;;;;;;8.55;3.15;;;24.50;99.90;;;;;;5032793;28;20021;-61
2022/07/20 00:02:33;;;;;;;5.43;2.90;;;24.40;99.90;;;;;;5029240;28;20036;-61
2022/07/20 00:04:59;;;;;;;5.88;3.38;;;24.30;99.90;;;;;;5034860;28;20025;-61
2022/07/20 00:07:24;;;;;;;5.32;3.10;;;24.20;99.90;;;;;;5030996;28;20021;-61
2022/07/20 00:12:34;;;;;;;5.68;3.58;;;24.20;99.90;;;;;;5038123;28;20554;-61
2022/07/20 00:15:00;;;;;;;4.00;2.75;;;24.10;99.90;;;;;;5036887;28;20025;-62
2022/07/20 00:17:25;;;;;;;5.07;2.65;;;24.10;99.90;;;;;;5042252;28;20030;-61
2022/07/20 00:19:51;;;;;;;4.45;2.90;;;24.10;99.90;;;;;;5042230;28;20025;-60
2022/07/20 00:22:16;;;;;;;8.20;2.92;;;24.00;99.90;;;;;;5033452;28;20025;-61
2022/07/20 00:24:42;;;;;;;6.32;3.35;;;24.00;99.90;;;;;;5030704;28;20043;-61
2022/07/20 00:27:08;;;;;;;4.57;3.42;;;24.10;99.90;;;;;;5033210;28;20060;-61
2022/07/20 00:29:33;;;;;;;7.10;3.53;;;24.20;99.90;;;;;;5025412;28;20032;-60
2022/07/20 00:31:59;;;;;;;8.27;3.28;;;24.10;99.90;;;;;;5028274;28;20044;-60
2022/07/20 00:34:25;;;;;;;10.40;3.53;;;24.00;99.90;;;;;;5034731;28;20029;-62
2022/07/20 00:36:50;;;;;;;4.68;3.10;;;24.00;99.90;;;;;;5026953;28;20057;-60
2022/07/20 00:39:16;;;;;;;8.38;3.80;;;24.00;99.90;;;;;;5031027;28;20018;-61
2022/07/20 00:41:41;;;;;;;5.72;3.53;;;23.90;99.90;;;;;;5027859;28;20018;-61
2022/07/20 00:44:09;;;;;;;6.30;3.28;;;24.00;99.90;;;;;;5025047;28;20082;-60
2022/07/20 00:46:37;;;;;;;5.30;3.17;;;23.80;99.90;;;;;;5031656;28;20576;-60
2022/07/20 00:49:04;;;;;;;4.85;3.15;;;23.80;99.90;;;;;;5037062;28;20033;-61
2022/07/20 00:51:30;;;;;;;7.50;4.00;;;23.70;99.90;;;;;;5034210;28;20048;-61
2022/07/20 00:53:56;;;;;;;6.32;3.55;;;23.70;99.90;;;;;;5030367;28;20029;-60
2022/07/20 00:56:22;;;;;;;6.75;3.30;;;23.60;99.90;;;;;;5037980;28;20017;-60
2022/07/20 00:58:48;;;;;;;7.70;3.83;;;23.40;99.90;;;;;;5026085;28;20103;-60
2022/07/20 01:01:14;;;;;;;6.22;3.42;;;23.30;99.90;;;;;;5035534;28;20285;-60
2022/07/20 01:03:41;;;;;;;7.97;3.70;;;23.20;99.90;;;;;;5029033;28;20079;-61
2022/07/20 01:06:08;;;;;;;6.03;3.33;;;23.20;99.90;;;;;;5026216;28;20409;-62
2022/07/20 01:08:34;;;;;;;5.70;3.90;;;23.10;99.90;;;;;;5033115;28;20024;-61
2022/07/20 01:11:01;;;;;;;8.48;4.03;;;23.00;99.90;;;;;;5030605;28;20163;-61
2022/07/20 01:13:27;;;;;;;6.43;3.88;;;22.90;99.90;;;;;;5042238;28;20726;-62
2022/07/20 01:15:52;;;;;;;7.55;3.60;;;22.80;99.90;;;;;;5029908;28;20664;-60
2022/07/20 01:18:18;;;;;;;5.85;3.45;;;22.80;99.90;;;;;;5046605;28;20074;-61
2022/07/20 01:20:47;;;;;;;7.28;3.53;;;22.80;99.90;;;;;;5038337;28;20107;-60
2022/07/20 01:23:14;;;;;;;7.20;4.22;;;22.70;99.90;;;;;;5027074;28;20420;-61
2022/07/20 01:25:39;;;;;;;8.90;3.85;;;22.70;99.90;;;;;;5037085;28;20034;-61
2022/07/20 01:28:06;;;;;;;5.85;3.42;;;22.70;99.90;;;;;;5027516;28;20717;-60
2022/07/20 01:30:32;;;;;;;6.40;3.60;;;22.60;99.90;;;;;;5042651;28;20044;-60
2022/07/20 01:32:58;;;;;;;7.68;3.50;;;22.50;99.90;;;;;;5028493;28;20062;-61
2022/07/20 01:35:23;;;;;;;5.75;3.42;;;22.50;99.90;;;;;;5029659;28;20473;-61
2022/07/20 01:37:49;;;;;;;6.00;3.63;;;22.40;99.90;;;;;;5027012;28;20056;-61
2022/07/20 01:40:14;;;;;;;6.82;3.60;;;22.40;99.90;;;;;;5031802;28;20105;-61
2022/07/20 01:42:40;;;;;;;4.97;3.75;;;22.30;99.90;;;;;;5026892;28;20815;-61
2022/07/20 01:45:06;;;;;;;5.63;3.88;;;22.20;99.90;;;;;;5032605;28;20037;-60
2022/07/20 01:47:32;;;;;;;6.00;3.88;;;22.20;99.90;;;;;;5038585;28;20024;-60
2022/07/20 01:49:57;;;;;;;6.10;3.80;;;22.20;99.90;;;;;;5045736;28;20036;-60
2022/07/20 01:52:23;;;;;;;7.63;3.67;;;22.10;99.90;;;;;;5034094;28;20484;-61
2022/07/20 01:54:48;;;;;;;7.15;3.85;;;22.10;99.90;;;;;;5038464;28;20021;-61
2022/07/20 01:57:14;;;;;;;8.15;4.05;;;22.00;99.90;;;;;;5027756;28;20108;-61
2022/07/20 01:59:40;;;;;;;5.78;3.60;;;21.90;99.90;;;;;;5031949;28;20029;-60
2022/07/20 02:02:05;;;;;;;6.28;4.05;;;21.90;99.90;;;;;;5028922;28;20025;-61
2022/07/20 02:04:31;;;;;;;7.18;3.90;;;21.90;99.90;;;;;;5038653;28;20131;-60
2022/07/20 02:06:56;;;;;;;6.28;3.80;;;21.70;99.90;;;;;;5033466;28;20029;-61
2022/07/20 02:09:22;;;;;;;6.75;4.15;;;21.80;99.90;;;;;;5030562;28;20033;-61
2022/07/20 02:11:47;;;;;;;7.05;3.85;;;21.80;99.90;;;;;;5027828;28;20493;-62
2022/07/20 02:14:13;;;;;;;6.00;3.72;;;21.60;99.90;;;;;;5039376;28;20566;-61
2022/07/20 02:16:38;;;;;;;6.43;3.83;;;21.60;99.90;;;;;;5040592;28;20532;-60
2022/07/20 02:19:04;;;;;;;5.45;3.80;;;21.60;99.90;;;;;;5045468;28;20065;-61
2022/07/20 02:21:30;;;;;;;5.88;3.58;;;21.60;99.90;;;;;;5046524;28;20032;-61
2022/07/20 02:23:56;;;;;;;7.07;4.00;;;21.60;99.90;;;;;;5033116;28;20033;-62
2022/07/20 02:26:22;;;;;;;5.03;3.65;;;21.50;99.90;;;;;;5029806;28;20030;-61
2022/07/20 02:28:48;;;;;;;7.35;3.42;;;21.50;99.90;;;;;;5032248;28;20037;-61
2022/07/20 02:31:14;;;;;;;5.63;3.80;;;21.50;99.90;;;;;;5031709;28;20551;-61
2022/07/20 02:33:40;;;;;;;6.00;3.70;;;21.40;99.90;;;;;;5028810;28;20034;-60
2022/07/20 02:36:06;;;;;;;5.53;3.80;;;21.40;99.90;;;;;;5033200;28;20049;-60
2022/07/20 02:38:31;;;;;;;7.63;3.85;;;21.50;99.90;;;;;;5034511;28;20469;-61
2022/07/20 02:40:57;;;;;;;5.50;3.35;;;21.50;99.90;;;;;;5043657;28;20436;-61
2022/07/20 02:43:22;;;;;;;7.63;3.53;;;21.50;99.90;;;;;;5027425;28;20472;-62
2022/07/20 02:45:48;;;;;;;7.55;3.63;;;21.60;99.90;;;;;;5034985;28;20389;-60
2022/07/20 02:48:14;;;;;;;6.20;3.70;;;21.60;99.90;;;;;;5036143;28;20032;-61
2022/07/20 02:50:41;;;;;;;6.78;3.50;;;21.70;99.90;;;;;;5037089;28;20029;-60
2022/07/20 02:53:11;;;;;;;7.65;3.78;;;21.70;99.90;;;;;;5033002;28;20037;-61
2022/07/20 02:55:39;;;;;;;6.78;3.47;;;21.80;99.90;;;;;;5028937;28;20499;-62
2022/07/20 02:58:04;;;;;;;10.13;3.67;;;21.80;99.90;;;;;;5034124;28;20405;-61
2022/07/20 03:00:30;;;;;;;5.63;3.50;;;21.90;99.90;;;;;;5034868;28;20071;-61
2022/07/20 03:02:57;;;;;;;9.70;3.70;;;21.90;99.90;;;;;;5031930;28;20124;-61
2022/07/20 03:05:23;;;;;;;7.97;3.55;;;21.90;99.90;;;;;;5036385;28;20186;-60
2022/07/20 03:07:49;;;;;;;7.15;3.25;;;22.10;99.90;;;;;;5032531;28;20072;-61
2022/07/20 03:10:14;;;;;;;5.22;3.20;;;22.20;99.90;;;;;;5030237;28;20056;-60
2022/07/20 03:12:40;;;;;;;6.35;3.45;;;22.10;99.90;;;;;;5047173;28;20027;-61
2022/07/20 03:15:06;;;;;;;8.73;3.40;;;22.00;99.90;;;;;;5035258;28;20087;-60
2022/07/20 03:17:32;;;;;;;3.90;3.30;;;21.90;99.90;;;;;;5039892;28;20476;-61
2022/07/20 03:19:58;;;;;;;8.13;3.55;;;21.60;99.90;;;;;;5035263;28;20083;-61
2022/07/20 03:22:23;;;;;;;7.95;3.70;;;21.80;99.90;;;;;;5043820;28;20033;-61
2022/07/20 03:24:49;;;;;;;8.00;3.88;;;22.00;99.90;;;;;;5026984;28;20021;-60
2022/07/20 03:27:15;;;;;;;8.85;3.92;;;22.10;99.90;;;;;;5030098;28;20528;-61
2022/07/20 03:29:41;;;;;;;9.40;3.80;;;22.30;99.90;;;;;;5027264;28;20041;-61
2022/07/20 03:32:07;;;;;;;8.05;4.25;;;22.30;99.90;;;;;;5030917;28;20120;-61
2022/07/20 03:34:33;;;;;;;8.88;4.00;;;22.50;99.90;;;;;;5044615;28;20131;-61
2022/07/20 03:36:58;;;;;;;8.80;3.70;;;22.30;99.90;;;;;;5030874;28;20025;-60
2022/07/20 03:39:24;;;;;;;8.70;3.58;;;22.40;99.90;;;;;;5025856;28;20095;-61
2022/07/20 03:41:49;;;;;;;6.80;3.88;;;22.20;99.90;;;;;;5033240;28;20029;-60
2022/07/20 03:44:15;;;;;;;5.20;3.65;;;22.00;99.90;;;;;;5031668;28;20017;-61
2022/07/20 03:46:41;;;;;;;8.50;3.92;;;22.00;99.90;;;;;;5034384;28;20033;-61
2022/07/20 03:49:06;;;;;;;5.97;3.63;;;22.00;99.90;;;;;;5031469;28;20137;-60
2022/07/20 03:51:32;;;;;;;8.05;4.00;;;22.00;99.90;;;;;;5035865;28;20558;-61
2022/07/20 03:53:57;;;;;;;7.82;3.78;;;21.80;99.90;;;;;;5033800;28;20396;-61
2022/07/20 03:56:23;;;;;;;7.07;3.90;;;21.60;99.90;;;;;;5027265;28;20029;-61
2022/07/20 03:58:49;;;;;;;8.20;4.15;;;21.70;99.90;;;;;;5030170;28;20052;-62
2022/07/20 04:01:14;;;;;;;4.35;3.47;;;21.70;99.90;;;;;;5030515;28;20033;-61
2022/07/20 04:03:40;;;;;;;6.05;3.80;;;21.60;99.90;;;;;;5030596;28;20060;-60
2022/07/20 04:06:06;;;;;;;7.60;3.83;;;21.60;99.90;;;;;;5034547;28;20094;-61
2022/07/20 04:08:32;;;;;;;7.32;3.92;;;21.50;99.90;;;;;;5029072;28;20068;-61
2022/07/20 04:10:57;;;;;;;9.85;3.53;;;21.50;99.90;;;;;;5025621;28;20419;-62
2022/07/20 04:13:23;;;;;;;7.40;3.58;;;21.50;99.90;;;;;;5035772;28;20093;-60
2022/07/20 04:15:48;;;;;;;7.20;3.97;;;21.70;99.90;;;;;;5028033;28;20034;-61
2022/07/20 04:18:17;;;;;;;7.80;3.60;;;21.70;99.90;;;;;;5035994;28;20026;-61
2022/07/20 04:20:43;;;;;;;12.35;3.70;;;21.70;99.90;;;;;;5038812;28;20022;-60
2022/07/20 04:23:08;;;;;;;7.15;3.30;;;21.50;99.90;;;;;;5028906;28;20100;-61
2022/07/20 04:25:34;;;;;;;10.77;3.97;;;21.70;99.90;;;;;;5041441;28;20035;-60
2022/07/20 04:28:00;;;;;;;9.98;3.83;;;21.70;99.90;;;;;;5040986;28;20693;-61
2022/07/20 04:30:25;;;;;;;7.28;3.92;;;21.80;99.90;;;;;;5033445;28;20085;-60
2022/07/20 04:32:51;;;;;;;7.68;3.70;;;21.80;99.90;;;;;;5032823;28;20102;-61
2022/07/20 04:35:17;;;;;;;5.88;3.40;;;21.90;99.90;;;;;;5024483;28;20020;-60
2022/07/20 04:37:42;;;;;;;7.88;3.70;;;22.00;99.90;;;;;;5028008;28;20017;-62
2022/07/20 04:40:09;;;;;;;6.00;3.55;;;22.00;99.90;;;;;;5025614;28;20104;-61
2022/07/20 04:42:34;;;;;;;10.20;3.70;;;22.10;99.90;;;;;;5032768;28;20053;-60
2022/07/20 04:45:00;;;;;;;10.65;3.95;;;22.10;99.90;;;;;;5029556;28;20592;-61
2022/07/20 04:47:25;;;;;;;8.60;4.13;;;22.10;99.90;;;;;;5030068;28;20079;-62
2022/07/20 04:49:51;;;;;;;10.15;4.68;;;22.10;99.90;;;;;;5036120;28;20036;-60
2022/07/20 04:52:16;;;;;;;10.05;5.15;;;22.10;99.90;;;;;;5029267;28;20041;-60
2022/07/20 04:54:42;;;;;;;13.88;6.40;;;22.30;99.90;;;;;;5032536;28;20421;-61
2022/07/20 04:57:09;;;;;;;15.85;6.50;;;22.50;99.90;;;;;;5024726;28;20029;-61
2022/07/20 04:59:34;;;;;;;13.80;7.53;;;22.60;99.90;;;;;;5029225;28;20350;-61
2022/07/20 05:02:00;;;;;;;17.65;8.93;;;22.60;99.90;;;;;;5026500;28;20032;-60
2022/07/20 05:04:26;;;;;;;18.40;8.75;;;22.70;99.90;;;;;;5032899;28;20442;-60
2022/07/20 05:06:51;;;;;;;17.65;9.75;;;22.80;99.90;;;;;;5037007;28;20622;-61
2022/07/20 05:09:17;;;;;;;17.55;9.70;;;22.80;99.90;;;;;;5038328;28;20025;-60
2022/07/20 05:11:42;;;;;;;20.60;10.13;;;23.00;99.90;;;;;;5024950;28;20038;-61
2022/07/20 05:14:11;;;;;;;18.30;9.20;;;23.10;99.90;;;;;;5036484;28;20036;-60
2022/07/20 05:16:37;;;;;;;21.48;9.75;;;23.20;99.90;;;;;;5036443;28;20120;-62
2022/07/20 05:19:03;;;;;;;15.98;8.77;;;23.10;99.90;;;;;;5037117;28;20034;-61
2022/07/20 05:21:29;;;;;;;17.95;9.55;;;23.00;99.90;;;;;;5042653;28;20026;-60
2022/07/20 05:23:54;;;;;;;14.38;9.00;;;23.10;99.90;;;;;;5031698;28;20036;-61
2022/07/20 05:26:20;;;;;;;19.58;8.38;;;23.20;99.90;;;;;;5030417;28;20111;-60
2022/07/20 05:28:46;;;;;;;18.45;9.35;;;23.30;99.90;;;;;;5031802;28;20127;-61
2022/07/20 05:31:14;;;;;;;18.10;9.63;;;23.20;99.90;;;;;;5040934;28;20038;-60
2022/07/20 05:33:40;;;;;;;19.35;10.07;;;23.30;99.90;;;;;;5030645;28;20033;-60
2022/07/20 05:36:06;;;;;;;16.15;9.70;;;23.30;99.90;;;;;;5034437;28;20021;-62
2022/07/20 05:38:32;;;;;;;18.90;10.48;;;23.40;99.90;;;;;;5031475;28;20022;-61
2022/07/20 05:40:58;;;;;;;16.63;10.48;;;23.50;99.90;;;;;;5034957;28;20123;-60
2022/07/20 05:43:23;;;;;;;19.17;11.02;;;23.60;99.90;;;;;;5029193;28;20025;-60
2022/07/20 05:45:49;;;;;;;20.27;11.80;;;23.60;99.90;;;;;;5037183;28;20033;-61
2022/07/20 05:48:15;;;;;;;23.85;11.80;;;23.70;99.90;;;;;;5032352;28;20029;-60
2022/07/20 05:50:42;;;;;;;22.08;12.90;;;23.80;99.90;;;;;;5043443;28;20027;-61
2022/07/20 05:53:08;;;;;;;21.63;12.30;;;23.90;99.90;;;;;;5028037;28;20071;-61
2022/07/20 05:55:34;;;;;;;28.85;12.85;;;24.00;99.90;;;;;;5032764;28;20049;-61
2022/07/20 05:58:01;;;;;;;24.50;12.75;;;24.00;99.90;;;;;;5031584;28;20025;-60
2022/07/20 06:00:26;;;;;;;21.00;13.18;;;24.00;99.90;;;;;;5035114;28;20059;-61
2022/07/20 06:02:52;;;;;;;23.63;13.70;;;24.00;99.90;;;;;;5033213;28;20489;-60
2022/07/20 06:05:17;;;;;;;21.02;12.70;;;24.00;99.90;;;;;;5035869;28;20104;-61
2022/07/20 06:07:43;;;;;;;20.05;12.70;;;24.10;99.90;;;;;;5033879;28;20105;-61
2022/07/20 06:10:10;;;;;;;24.70;13.45;;;24.20;99.90;;;;;;5032018;28;20060;-61
2022/07/20 06:12:36;;;;;;;22.45;14.50;;;24.20;99.90;;;;;;5030302;28;20366;-61
2022/07/20 06:15:02;;;;;;;22.73;14.98;;;24.30;99.90;;;;;;5030913;28;20034;-61
2022/07/20 06:17:38;;;;;;;20.55;14.48;;;24.40;99.90;;;;;;5042454;28;20373;-60
2022/07/20 06:20:09;;;;;;;26.65;14.15;;;24.40;99.90;;;;;;5041446;28;20033;-61
2022/07/20 06:22:36;;;;;;;28.85;15.27;;;24.40;99.90;;;;;;5046240;28;20033;-62
2022/07/20 06:25:03;;;;;;;20.40;14.07;;;24.50;99.90;;;;;;5042799;28;20037;-60
2022/07/20 06:27:28;;;;;;;25.17;14.45;;;24.50;99.90;;;;;;5033586;28;20505;-62
2022/07/20 06:29:54;;;;;;;22.42;15.77;;;24.70;99.90;;;;;;5032203;28;20053;-61
2022/07/20 06:32:19;;;;;;;29.38;15.85;;;24.70;99.90;;;;;;5034240;28;20233;-61
2022/07/20 06:34:45;;;;;;;23.92;16.20;;;24.60;99.90;;;;;;5033110;28;20091;-60
2022/07/20 06:37:12;;;;;;;25.40;16.42;;;24.60;99.90;;;;;;5031308;28;20481;-61
2022/07/20 06:39:37;;;;;;;26.05;17.35;;;24.60;99.90;;;;;;5027622;28;20105;-61
2022/07/20 06:42:03;;;;;;;23.83;16.70;;;24.60;99.90;;;;;;5034537;28;20048;-61
2022/07/20 06:44:28;;;;;;;25.17;16.90;;;24.70;99.90;;;;;;5037893;28;20389;-60
2022/07/20 06:46:54;;;;;;;32.00;17.73;;;24.70;99.90;;;;;;5038698;28;20043;-60
2022/07/20 06:49:20;;;;;;;24.92;17.60;;;24.90;99.90;;;;;;5038206;28;20113;-61
2022/07/20 06:51:45;;;;;;;29.10;18.20;;;24.90;99.90;;;;;;5036411;28;20079;-61
2022/07/20 06:54:11;;;;;;;28.15;18.83;;;24.90;99.90;;;;;;5027895;28;20095;-61
2022/07/20 06:56:36;;;;;;;25.55;18.92;;;24.90;99.90;;;;;;5031670;28;20084;-61
2022/07/20 06:59:02;;;;;;;28.98;17.80;;;24.80;99.90;;;;;;5041517;28;20079;-61
2022/07/20 07:01:28;;;;;;;25.60;16.65;;;24.80;99.90;;;;;;5028996;28;20083;-60
2022/07/20 07:03:53;;;;;;;24.67;18.63;;;24.80;99.90;;;;;;5032599;28;20040;-61
2022/07/20 07:06:19;;;;;;;27.67;18.65;;;24.80;99.90;;;;;;5034724;28;20041;-61
2022/07/20 07:08:44;;;;;;;31.52;19.55;;;24.90;99.90;;;;;;5037040;28;20039;-60
2022/07/20 07:11:10;;;;;;;27.00;19.30;;;25.00;99.90;;;;;;5027866;28;20021;-60
2022/07/20 07:13:35;;;;;;;27.77;18.15;;;25.10;99.90;;;;;;5040105;28;20024;-61
2022/07/20 07:16:01;;;;;;;29.05;19.60;;;25.30;99.90;;;;;;5029731;28;20105;-60
2022/07/20 07:18:27;;;;;;;32.67;18.90;;;25.40;99.90;;;;;;5046248;28;20021;-61
2022/07/20 07:20:52;;;;;;;31.35;19.73;;;25.40;99.90;;;;;;5028068;28;20022;-61
2022/07/20 07:23:18;;;;;;;23.55;17.95;;;25.30;99.90;;;;;;5030589;28;20093;-61
2022/07/20 07:25:43;;;;;;;29.80;20.20;;;25.40;99.90;;;;;;5027270;28;20799;-61
2022/07/20 07:28:09;;;;;;;30.10;19.23;;;25.30;99.90;;;;;;5031735;28;20707;-61
2022/07/20 07:30:34;;;;;;;28.27;19.35;;;25.30;99.90;;;;;;5031039;28;20056;-61
2022/07/20 07:33:00;;;;;;;35.40;19.15;;;25.40;99.90;;;;;;5030594;28;20037;-61
2022/07/20 07:35:25;;;;;;;25.98;20.15;;;25.40;99.90;;;;;;5026304;28;20036;-60
2022/07/20 07:37:51;;;;;;;26.65;19.75;;;25.50;99.90;;;;;;5029887;28;20053;-61
2022/07/20 07:40:16;;;;;;;29.85;18.30;;;25.60;99.90;;;;;;5027967;28;20026;-60
2022/07/20 07:42:42;;;;;;;32.53;19.23;;;25.70;99.90;;;;;;5033457;28;20440;-61
2022/07/20 07:45:08;;;;;;;32.80;19.88;;;25.70;99.90;;;;;;5031866;28;20439;-62
2022/07/20 07:47:34;;;;;;;28.00;19.58;;;25.70;99.90;;;;;;5035152;28;20024;-60
2022/07/20 07:50:00;;;;;;;27.58;19.75;;;25.80;99.90;;;;;;5034010;28;20082;-61
2022/07/20 07:52:26;;;;;;;24.83;17.40;;;25.60;99.90;;;;;;5034631;28;21587;-60
2022/07/20 07:54:51;;;;;;;30.10;17.98;;;25.70;99.90;;;;;;5030224;28;20236;-62
2022/07/20 07:57:17;;;;;;;28.58;19.25;;;25.80;99.90;;;;;;5028088;28;20432;-61
2022/07/20 07:59:42;;;;;;;33.58;19.48;;;25.90;99.90;;;;;;5042895;28;20017;-60
2022/07/20 08:02:08;;;;;;;24.05;17.88;;;25.90;99.90;;;;;;5028443;28;20049;-61
2022/07/20 08:04:34;;;;;;;26.45;17.98;;;25.90;99.90;;;;;;5050746;28;20037;-61
2022/07/20 08:07:00;;;;;;;26.52;18.08;;;25.90;99.90;;;;;;5041070;28;20044;-61
2022/07/20 08:09:26;;;;;;;23.58;17.13;;;25.90;99.90;;;;;;5039263;28;20063;-61
2022/07/20 08:11:52;;;;;;;27.70;17.85;;;26.00;99.90;;;;;;5031580;28;20033;-61
2022/07/20 08:14:17;;;;;;;24.95;17.20;;;26.00;99.90;;;;;;5045220;28;20116;-61
2022/07/20 08:16:43;;;;;;;23.30;16.75;;;26.10;99.90;;;;;;5033400;28;20021;-61
2022/07/20 08:19:09;;;;;;;28.55;18.83;;;26.10;99.90;;;;;;5043399;28;20481;-60
2022/07/20 08:21:34;;;;;;;23.85;17.33;;;26.00;99.90;;;;;;5033283;28;20392;-61
2022/07/20 08:24:00;;;;;;;32.33;17.58;;;26.00;99.90;;;;;;5029385;28;20056;-60
2022/07/20 08:26:26;;;;;;;22.77;17.00;;;26.20;99.90;;;;;;5028005;28;20033;-61
2022/07/20 08:28:51;;;;;;;20.20;16.20;;;26.30;99.90;;;;;;5029621;28;20314;-61
2022/07/20 08:31:17;;;;;;;26.88;17.58;;;26.50;99.90;;;;;;5030806;28;20500;-62
2022/07/20 08:33:42;;;;;;;23.30;17.02;;;26.20;99.90;;;;;;5031162;28;20454;-60
2022/07/20 08:36:08;;;;;;;26.08;18.58;;;26.10;99.90;;;;;;5024772;28;20066;-61
2022/07/20 08:38:33;;;;;;;25.63;17.27;;;26.20;99.90;;;;;;5027471;28;20451;-61
2022/07/20 08:41:00;;;;;;;21.20;16.88;;;25.90;99.90;;;;;;5029747;28;20431;-61
2022/07/20 08:43:26;;;;;;;24.80;17.80;;;25.80;99.90;;;;;;5026318;28;20064;-61
2022/07/20 08:45:52;;;;;;;21.67;16.90;;;26.10;99.90;;;;;;5035629;28;20061;-61
2022/07/20 08:48:18;;;;;;;23.25;16.38;;;26.30;99.90;;;;;;5028223;28;20037;-61
2022/07/20 08:50:45;;;;;;;24.23;17.08;;;26.50;99.90;;;;;;5036208;28;20412;-62
2022/07/20 08:53:11;;;;;;;20.38;15.77;;;26.60;99.90;;;;;;5024223;28;20555;-62
2022/07/20 08:55:36;;;;;;;27.17;17.67;;;26.60;99.90;;;;;;5029340;28;20029;-60
2022/07/20 08:58:02;;;;;;;23.77;18.40;;;26.70;99.90;;;;;;5028449;28;20089;-61
2022/07/20 09:00:28;;;;;;;26.88;17.40;;;26.40;99.90;;;;;;5031836;28;20053;-61
2022/07/20 09:03:02;;;;;;;27.63;18.05;;;26.20;99.90;;;;;;5037185;28;20074;-60
2022/07/20 09:05:33;;;;;;;29.40;18.05;;;26.30;99.90;;;;;;5028313;28;20022;-60
2022/07/20 09:08:02;;;;;;;25.10;17.80;;;26.10;99.90;;;;;;5025082;28;20545;-62
2022/07/20 09:10:34;;;;;;;25.15;17.00;;;26.10;99.90;;;;;;5030229;28;20017;-60
2022/07/20 09:13:03;;;;;;;21.30;16.02;;;26.30;99.90;;;;;;5029805;28;20052;-60
2022/07/20 09:15:39;;;;;;;29.00;16.58;;;26.30;99.90;;;;;;5033168;28;20420;-61
2022/07/20 09:18:06;;;;;;;21.20;16.05;;;26.40;99.90;;;;;;5039310;28;20024;-61
2022/07/20 09:20:33;;;;;;;23.33;15.80;;;26.50;99.90;;;;;;5036056;28;20482;-61
2022/07/20 09:23:11;;;;;;;23.73;15.55;;;26.60;99.90;;;;;;5028518;28;20055;-60
2022/07/20 09:25:38;;;;;;;24.98;15.93;;;26.70;99.90;;;;;;5025952;28;20493;-61
2022/07/20 09:28:03;;;;;;;21.00;14.55;;;26.90;99.90;;;;;;5029713;28;20025;-61
2022/07/20 09:30:29;;;;;;;22.05;14.10;;;26.70;99.90;;;;;;5028879;28;20036;-60
2022/07/20 09:33:01;;;;;;;17.98;13.60;;;26.80;99.90;;;;;;5028937;28;20041;-62
2022/07/20 09:35:33;;;;;;;21.60;14.05;;;26.70;99.90;;;;;;5024577;28;20673;-61
2022/07/20 09:38:02;;;;;;;21.15;14.18;;;26.50;99.90;;;;;;5028497;28;20032;-61
2022/07/20 09:40:37;;;;;;;27.92;14.63;;;26.50;99.90;;;;;;5028511;28;20385;-60
2022/07/20 09:43:03;;;;;;;20.05;13.50;;;26.30;99.90;;;;;;5029317;28;20033;-61
2022/07/20 09:45:29;;;;;;;25.77;14.50;;;26.30;99.90;;;;;;5033792;28;20028;-61
2022/07/20 09:48:05;;;;;;;22.17;14.15;;;26.50;99.90;;;;;;5032107;28;20101;-61
2022/07/20 09:50:33;;;;;;;22.88;14.20;;;26.50;99.90;;;;;;5035420;28;20036;-60
2022/07/20 09:52:58;;;;;;;20.42;13.68;;;26.60;99.90;;;;;;5024417;28;20028;-62
2022/07/20 09:55:27;;;;;;;19.08;13.82;;;26.70;99.90;;;;;;5027229;28;20326;-60
2022/07/20 09:57:54;;;;;;;21.58;14.40;;;26.90;99.90;;;;;;5025793;28;20030;-61
2022/07/20 10:00:20;;;;;;;19.50;13.73;;;26.90;99.90;;;;;;5031909;28;20025;-62
2022/07/20 10:02:49;;;;;;;20.55;13.50;;;26.90;99.90;;;;;;5025309;28;20021;-61
2022/07/20 10:05:19;;;;;;;18.42;12.57;;;26.90;99.90;;;;;;5033345;28;20034;-62
2022/07/20 10:07:45;;;;;;;25.10;15.00;;;27.00;99.90;;;;;;5028275;28;20035;-60
2022/07/20 10:10:12;;;;;;;24.65;15.07;;;27.00;99.90;;;;;;5038028;28;20017;-61
2022/07/20 10:12:38;;;;;;;22.02;14.73;;;27.00;99.90;;;;;;5032624;28;20071;-60
2022/07/20 10:15:17;;;;;;;25.20;14.95;;;27.10;99.90;;;;;;5040503;28;20030;-61
2022/07/20 10:17:44;;;;;;;21.48;15.13;;;27.20;99.90;;;;;;5048845;28;20029;-61
2022/07/20 10:20:30;;;;;;;23.98;15.05;;;27.30;99.90;;;;;;5036465;28;20013;-60
2022/07/20 10:23:14;;;;;;;20.77;14.77;;;27.40;99.90;;;;;;5039560;28;20072;-61
2022/07/20 10:25:44;;;;;;;21.90;14.20;;;27.50;99.90;;;;;;5043120;28;20646;-61
2022/07/20 10:28:32;;;;;;;20.13;13.18;;;27.50;99.90;;;;;;5043049;28;20009;-60
2022/07/20 10:31:06;;;;;;;28.75;13.98;;;27.50;99.90;;;;;;5030836;28;20082;-61
2022/07/20 10:33:34;;;;;;;16.85;11.98;;;27.60;99.90;;;;;;5027755;28;20037;-61
2022/07/20 10:38:57;;;;;;;20.95;12.82;;;27.70;99.90;;;;;;5032741;28;20079;-60
2022/07/20 10:41:31;;;;;;;20.58;14.20;;;27.90;99.90;;;;;;5029514;28;20025;-62
2022/07/20 10:44:26;;;;;;;18.00;12.65;;;27.80;99.90;;;;;;5026516;28;20051;-61
2022/07/20 10:46:51;;;;;;;15.52;11.25;;;27.80;99.90;;;;;;5033945;28;20042;-61
2022/07/20 10:49:17;;;;;;;15.60;10.57;;;27.90;99.90;;;;;;5037092;28;20053;-61
2022/07/20 10:51:43;;;;;;;22.73;12.20;;;27.90;99.90;;;;;;5035245;28;20268;-61
2022/07/20 10:54:30;;;;;;;16.05;11.50;;;28.00;99.90;;;;;;5033060;28;20036;-61
2022/07/20 10:57:00;;;;;;;21.13;12.15;;;27.80;99.90;;;;;;5026392;28;20658;-61
2022/07/20 10:59:25;;;;;;;18.17;11.32;;;27.80;99.90;;;;;;5026384;28;20053;-61
2022/07/20 11:01:51;;;;;;;13.77;10.43;;;28.00;99.90;;;;;;5026833;28;20138;-61
2022/07/20 11:04:17;;;;;;;18.25;11.32;;;28.20;99.90;;;;;;5039795;28;20021;-61
2022/07/20 11:06:43;;;;;;;15.82;11.00;;;28.30;99.90;;;;;;5031462;28;20024;-61
2022/07/20 11:09:08;;;;;;;18.85;10.75;;;27.90;99.90;;;;;;5029444;28;20040;-60
2022/07/20 11:11:36;;;;;;;16.05;10.35;;;28.30;99.90;;;;;;5026137;28;20598;-61
2022/07/20 11:14:05;;;;;;;17.55;10.30;;;28.50;99.90;;;;;;5035478;28;20021;-62
2022/07/20 11:16:32;;;;;;;15.48;9.93;;;27.50;99.90;;;;;;5035550;28;20435;-61
2022/07/20 11:18:59;;;;;;;13.25;10.38;;;28.30;99.90;;;;;;5044587;28;20025;-60
2022/07/20 11:21:34;;;;;;;14.00;9.82;;;28.30;99.90;;;;;;5031119;28;20033;-61
2022/07/20 11:24:00;;;;;;;33.50;10.25;;;28.50;99.90;;;;;;5032768;28;20072;-61
2022/07/20 11:26:26;;;;;;;14.40;9.82;;;28.60;99.90;;;;;;5034727;28;20107;-61
2022/07/20 11:28:55;;;;;;;17.33;9.70;;;28.70;99.90;;;;;;5026958;28;20037;-61
2022/07/20 11:31:23;;;;;;;13.88;8.63;;;28.60;99.90;;;;;;5031964;28;20469;-62
2022/07/20 11:33:51;;;;;;;13.38;8.50;;;28.50;99.90;;;;;;5032909;28;20040;-61
2022/07/20 11:36:22;;;;;;;12.43;8.23;;;28.50;99.90;;;;;;5032583;28;20103;-61
2022/07/20 11:38:55;;;;;;;13.18;8.65;;;28.50;99.90;;;;;;5031577;28;20028;-61
2022/07/20 11:41:24;;;;;;;11.68;8.45;;;28.50;99.90;;;;;;5028762;28;20393;-61
2022/07/20 11:43:51;;;;;;;11.65;8.15;;;28.60;99.90;;;;;;5025119;28;20031;-60
2022/07/20 11:46:22;;;;;;;14.52;8.15;;;28.70;99.90;;;;;;5034742;28;20487;-61
2022/07/20 11:49:13;;;;;;;14.13;8.50;;;28.70;99.90;;;;;;5038743;28;20166;-61
2022/07/20 11:51:40;;;;;;;11.75;8.40;;;28.80;99.90;;;;;;5034345;28;20029;-62
2022/07/20 11:54:06;;;;;;;9.60;7.30;;;28.90;99.90;;;;;;5038954;28;20030;-61
2022/07/20 11:56:35;;;;;;;10.98;7.18;;;28.90;99.90;;;;;;5026062;28;20567;-60
2022/07/20 11:59:02;;;;;;;15.85;7.32;;;28.90;99.90;;;;;;5029513;28;20029;-62
2022/07/20 12:01:35;;;;;;;12.52;7.43;;;28.80;99.90;;;;;;5026801;28;20210;-61
2022/07/20 12:04:06;;;;;;;11.70;7.47;;;28.60;99.90;;;;;;5030501;28;20116;-61
2022/07/20 12:06:34;;;;;;;13.00;7.68;;;28.70;99.90;;;;;;5043400;28;20037;-61
2022/07/20 12:09:18;;;;;;;13.13;7.45;;;28.90;99.90;;;;;;5030905;28;20110;-62
2022/07/20 12:11:59;;;;;;;11.02;7.20;;;28.90;99.90;;;;;;5032486;28;20134;-60
2022/07/20 12:14:29;;;;;;;13.05;6.80;;;29.00;99.90;;;;;;5037662;28;20022;-61
2022/07/20 12:16:56;;;;;;;10.75;6.60;;;29.10;99.90;;;;;;5038635;28;20499;-61
2022/07/20 12:19:21;;;;;;;11.02;6.70;;;29.10;99.90;;;;;;5036177;28;20028;-62
2022/07/20 12:21:49;;;;;;;11.25;6.47;;;29.30;99.90;;;;;;5038321;28;20017;-62
2022/07/20 12:24:15;;;;;;;9.90;6.68;;;29.30;99.90;;;;;;5030641;28;20034;-61
2022/07/20 12:26:42;;;;;;;10.30;7.00;;;29.30;99.90;;;;;;5024195;28;20664;-62
2022/07/20 12:29:20;;;;;;;10.85;6.53;;;29.20;99.90;;;;;;5026011;28;20038;-61
2022/07/20 12:32:07;;;;;;;9.77;6.72;;;29.20;99.90;;;;;;5029815;28;20053;-62
2022/07/20 12:34:53;;;;;;;11.95;7.13;;;29.40;99.90;;;;;;5041673;28;20025;-61
2022/07/20 12:37:19;;;;;;;11.32;7.07;;;29.30;99.90;;;;;;5037422;28;20099;-62
2022/07/20 12:39:49;;;;;;;9.52;6.60;;;29.10;99.90;;;;;;5029324;28;20040;-61